This is the latest recevied weather packets stored in our database for station/object Riedlingn. If no packets are shown the sender has not sent any weather packets the latest 10 day(s).
| Time | Temp. | Humidity | Pressure | Rain* | Wind** | Luminosity | Snow |
|---|---|---|---|---|---|---|---|
| 1788019330 | 22.22° C | 57% | 1020.1 hPa | 0.25 mm | - | - | - |
| 1788017530 | 23.33° C | 54% | 1020.1 hPa | 0.25 mm | - | - | - |
| 1788015731 | 22.78° C | 55% | 1020.2 hPa | 0.25 mm | - | - | - |
| 1788013932 | 23.33° C | 55% | 1020.3 hPa | 0.25 mm | - | - | - |
| 1788012130 | 23.33° C | 53% | 1020.4 hPa | 0.25 mm | - | - | - |
| 1788010330 | 22.78° C | 56% | 1020.7 hPa | 0.25 mm | - | - | - |
| 1788008530 | 23.33° C | 54% | 1020.7 hPa | 0.25 mm | - | - | - |
| 1788006730 | 22.78° C | 57% | 1021 hPa | 0.25 mm | - | - | - |
| 1788004930 | 22.78° C | 58% | 1021.4 hPa | 0.25 mm | - | - | - |
| 1788003130 | 22.22° C | 60% | 1021.5 hPa | 0.25 mm | - | - | - |
| 1788001329 | 21.67° C | 62% | 1021.7 hPa | 0.25 mm | - | - | - |
| 1787999530 | 21.11° C | 66% | 1022 hPa | 0.25 mm | - | - | - |
| 1787997730 | 20.56° C | 68% | 1022.2 hPa | 0.25 mm | - | - | - |
| 1787995930 | 20.56° C | 71% | 1022.5 hPa | 0.25 mm | - | - | - |
| 1787994130 | 19.44° C | 75% | 1022.6 hPa | 0.25 mm | - | - | - |
| 1787992330 | 18.33° C | 79% | 1022.6 hPa | 0.25 mm | - | - | - |
| 1787990530 | 17.78° C | 86% | 1022.6 hPa | 0.25 mm | - | - | - |
| 1787988729 | 16.11° C | 91% | 1022.6 hPa | 0.25 mm | - | - | - |
| 1787986930 | 15.56° C | 95% | 1022.5 hPa | 0.25 mm | - | - | - |
| 1787985130 | 15° C | 97% | 1022.5 hPa | 0.25 mm | - | - | - |
| 1787983330 | 13.89° C | 97% | 1022.6 hPa | 0.25 mm | - | - | - |
| 1787981530 | 13.33° C | 96% | 1022.4 hPa | 0.25 mm | - | - | - |
| 1787979730 | 13.33° C | 96% | 1022.2 hPa | 0.25 mm | - | - | - |
| 1787977930 | 13.33° C | 96% | 1022 hPa | 0.25 mm | - | - | - |
| 1787976129 | 12.78° C | 96% | 1022 hPa | 0.25 mm | - | - | - |
* Rain since midnight (hover to see other rain measurements)
** Current wind speed in m/s (hover to see current wind gust speed)